Time,TemperatureF,DewpointF,PressureIn,WindDirection,WindDirectionDegrees,WindSpeedMPH,WindSpeedGustMPH,Humidity,HourlyPrecipIn,Conditions,Clouds,dailyrainin,SoftwareType,DateUTC
2013-04-27 00:02:00,40.6,31.9,30.25,SE,135,0.0,0.0,71,0.00,CLR,FEW,0.00,WeatherDisplay:10.37,2013-04-27 07:02:00,
2013-04-27 00:17:00,40.5,32.1,30.24,SE,135,0.0,0.0,72,0.00,CLR,FEW,0.00,WeatherDisplay:10.37,2013-04-27 07:17:00,
2013-04-27 00:32:00,40.3,32.3,30.25,SE,135,0.0,0.0,73,0.00,CLR,FEW,0.00,WeatherDisplay:10.37,2013-04-27 07:32:00,
2013-04-27 00:47:00,40.1,32.1,30.25,SE,135,0.0,0.0,73,0.00,CLR,FEW,0.00,WeatherDisplay:10.37,2013-04-27 07:47:00,
2013-04-27 01:02:00,39.9,32.3,30.25,East,90,0.0,0.0,74,0.00,CLR,FEW,0.00,WeatherDisplay:10.37,2013-04-27 08:02:00,
2013-04-27 01:17:00,39.5,31.9,30.25,SE,127,0.0,0.0,74,0.00,CLR,FEW,0.00,WeatherDisplay:10.37,2013-04-27 08:17:00,
2013-04-27 01:32:00,39.4,32.1,30.25,SSE,158,0.0,0.0,75,0.00,CLR,FEW,0.00,WeatherDisplay:10.37,2013-04-27 08:32:00,
2013-04-27 01:47:00,39.4,32.4,30.26,SSE,158,0.0,0.0,76,0.00,CLR,FEW,0.00,WeatherDisplay:10.37,2013-04-27 08:47:00,
2013-04-27 02:02:00,39.1,32.2,30.25,SSE,158,0.0,0.0,76,0.00,CLR,FEW,0.00,WeatherDisplay:10.37,2013-04-27 09:02:00,
2013-04-27 02:17:00,38.8,31.9,30.25,SSW,204,0.0,0.0,76,0.00,CLR,FEW,0.00,WeatherDisplay:10.37,2013-04-27 09:17:00,
2013-04-27 02:32:00,38.5,31.9,30.25,SSE,158,0.0,0.0,77,0.00,CLR,FEW,0.00,WeatherDisplay:10.37,2013-04-27 09:32:00,
2013-04-27 02:47:00,38.1,31.5,30.24,SSE,158,0.0,0.0,77,0.00,CLR,FEW,0.00,WeatherDisplay:10.37,2013-04-27 09:47:00,
2013-04-27 03:02:00,38.3,32.0,30.25,NNE,29,0.0,1.0,78,0.00,OVC,FEW,0.00,WeatherDisplay:10.37,2013-04-27 10:02:00,
2013-04-27 03:17:00,37.9,31.7,30.25,SE,135,0.0,1.0,78,0.00,OVC,FEW,0.00,WeatherDisplay:10.37,2013-04-27 10:17:00,
2013-04-27 03:32:00,37.2,31.0,30.25,SE,135,0.0,0.0,78,0.00,OVC,FEW,0.00,WeatherDisplay:10.37,2013-04-27 10:32:00,
2013-04-27 03:47:00,37.0,30.8,30.25,SE,135,0.0,0.0,78,0.00,OVC,FEW,0.00,WeatherDisplay:10.37,2013-04-27 10:47:00,
2013-04-27 04:02:00,36.4,30.2,30.24,SE,135,0.0,0.0,78,0.00,CLR,FEW,0.00,WeatherDisplay:10.37,2013-04-27 11:02:00,
2013-04-27 04:17:00,36.1,30.3,30.24,South,186,0.0,0.0,79,0.00,CLR,FEW,0.00,WeatherDisplay:10.37,2013-04-27 11:17:00,
2013-04-27 04:32:00,36.0,30.1,30.24,SW,225,0.0,0.0,79,0.00,CLR,FEW,0.00,WeatherDisplay:10.37,2013-04-27 11:32:00,
2013-04-27 04:47:00,35.4,29.6,30.25,South,171,0.0,0.0,79,0.00,CLR,FEW,0.00,WeatherDisplay:10.37,2013-04-27 11:47:00,
2013-04-27 05:02:00,35.2,29.4,30.25,SSE,161,0.0,0.0,79,0.00,BKN,FEW,0.00,WeatherDisplay:10.37,2013-04-27 12:02:00,
2013-04-27 05:17:00,34.9,29.3,30.26,South,180,0.0,0.0,80,0.00,BKN,FEW,0.00,WeatherDisplay:10.37,2013-04-27 12:17:00,
2013-04-27 05:32:00,34.9,29.3,30.26,SSE,158,0.0,0.0,80,0.00,BKN,FEW,0.00,WeatherDisplay:10.37,2013-04-27 12:32:00,
2013-04-27 05:47:00,34.9,29.3,30.26,South,180,0.0,0.0,80,0.00,BKN,FEW,0.00,WeatherDisplay:10.37,2013-04-27 12:47:00,
2013-04-27 06:02:00,35.8,30.5,30.26,NNE,28,0.0,0.0,81,0.00,BKN,FEW,0.00,WeatherDisplay:10.37,2013-04-27 13:02:00,
2013-04-27 06:17:00,36.5,31.3,30.27,SSE,148,0.0,0.0,81,0.00,BKN,FEW,0.00,WeatherDisplay:10.37,2013-04-27 13:17:00,
2013-04-27 06:32:00,37.6,32.3,30.27,SSE,158,0.0,0.0,81,0.00,BKN,FEW,0.00,WeatherDisplay:10.37,2013-04-27 13:32:00,
2013-04-27 07:02:00,39.7,34.3,30.27,SSW,198,0.0,1.0,81,0.00,OVC,FEW,0.00,WeatherDisplay:10.37,2013-04-27 14:02:00,
2013-04-27 07:17:00,40.3,34.9,30.26,NNE,19,0.0,0.0,81,0.00,OVC,FEW,0.00,WeatherDisplay:10.37,2013-04-27 14:17:00,
2013-04-27 07:32:00,40.8,35.4,30.26,NW,318,0.0,0.0,81,0.00,OVC,FEW,0.00,WeatherDisplay:10.37,2013-04-27 14:32:00,
2013-04-27 07:47:00,41.5,36.1,30.27,ESE,109,0.0,0.0,81,0.00,OVC,FEW,0.00,WeatherDisplay:10.37,2013-04-27 14:47:00,
2013-04-27 08:02:00,43.0,37.8,30.27,SSW,208,0.0,0.0,82,0.00,BKN,FEW,0.00,WeatherDisplay:10.37,2013-04-27 15:02:00,
2013-04-27 08:17:00,44.8,39.7,30.27,North,5,0.0,0.0,82,0.00,BKN,FEW,0.00,WeatherDisplay:10.37,2013-04-27 15:17:00,
2013-04-27 08:32:00,47.4,42.2,30.27,NNE,14,1.0,3.0,82,0.00,BKN,FEW,0.00,WeatherDisplay:10.37,2013-04-27 15:32:00,
2013-04-27 08:47:00,49.8,44.5,30.27,NNE,22,2.0,5.0,82,0.00,BKN,FEW,0.00,WeatherDisplay:10.37,2013-04-27 15:47:00,
2013-04-27 09:02:00,52.1,46.1,30.26,NNE,28,1.0,5.0,80,0.00,OVC,FEW,0.00,WeatherDisplay:10.37,2013-04-27 16:02:00,
2013-04-27 09:17:00,53.8,47.1,30.27,North,353,2.0,3.0,78,0.00,OVC,FEW,0.00,WeatherDisplay:10.37,2013-04-27 16:17:00,
2013-04-27 09:32:00,55.8,48.4,30.26,NNW,347,1.0,4.0,76,0.00,OVC,FEW,0.00,WeatherDisplay:10.37,2013-04-27 16:32:00,
2013-04-27 09:47:00,58.8,49.8,30.27,NNE,22,3.0,7.0,72,0.00,OVC,FEW,0.00,WeatherDisplay:10.37,2013-04-27 16:47:00,
2013-04-27 10:02:00,60.9,51.4,30.27,SSW,201,1.0,6.0,71,0.00,OVC,FEW,0.00,WeatherDisplay:10.37,2013-04-27 17:02:00,
2013-04-27 10:17:00,61.4,50.4,30.27,West,275,5.0,9.0,67,0.00,OVC,FEW,0.00,WeatherDisplay:10.37,2013-04-27 17:17:00,
2013-04-27 10:32:00,61.3,49.1,30.27,West,273,6.0,13.0,64,0.00,OVC,FEW,0.00,WeatherDisplay:10.37,2013-04-27 17:32:00,
2013-04-27 10:47:00,61.3,49.9,30.27,West,274,1.0,13.0,66,0.00,OVC,FEW,0.00,WeatherDisplay:10.37,2013-04-27 17:47:00,
2013-04-27 11:02:00,62.8,49.6,30.27,West,262,6.0,13.0,62,0.00,OVC,FEW,0.00,WeatherDisplay:10.37,2013-04-27 18:02:00,
2013-04-27 11:17:00,61.9,49.1,30.27,West,266,1.0,13.0,63,0.00,OVC,FEW,0.00,WeatherDisplay:10.37,2013-04-27 18:17:00,
2013-04-27 11:32:00,63.9,50.6,30.26,SW,218,5.0,12.0,62,0.00,OVC,FEW,0.00,WeatherDisplay:10.37,2013-04-27 18:32:00,
2013-04-27 11:47:00,64.7,50.0,30.27,WSW,246,3.0,13.0,59,0.00,OVC,FEW,0.00,WeatherDisplay:10.37,2013-04-27 18:47:00,
2013-04-27 12:02:00,66.1,50.4,30.27,West,264,2.0,11.0,57,0.00,OVC,FEW,0.00,WeatherDisplay:10.37,2013-04-27 19:02:00,
2013-04-27 12:17:00,65.5,48.9,30.27,WSW,246,5.0,10.0,55,0.00,OVC,FEW,0.00,WeatherDisplay:10.37,2013-04-27 19:17:00,
2013-04-27 12:32:00,64.4,48.9,30.27,NW,308,2.0,10.0,57,0.00,OVC,FEW,0.00,WeatherDisplay:10.37,2013-04-27 19:32:00,
2013-04-27 12:47:00,62.4,47.0,30.27,WNW,299,5.0,11.0,57,0.00,OVC,FEW,0.00,WeatherDisplay:10.37,2013-04-27 19:47:00,
2013-04-27 13:02:00,61.9,47.4,30.27,WNW,291,6.0,14.0,59,0.00,OVC,FEW,0.00,WeatherDisplay:10.37,2013-04-27 20:02:00,
2013-04-27 13:17:00,61.2,47.6,30.27,WNW,294,7.0,13.0,61,0.00,OVC,FEW,0.00,WeatherDisplay:10.37,2013-04-27 20:17:00,
2013-04-27 13:32:00,58.8,46.2,30.28,WNW,295,6.0,15.0,63,0.00,OVC,FEW,0.00,WeatherDisplay:10.37,2013-04-27 20:32:00,
2013-04-27 13:47:00,58.8,46.2,30.28,SW,234,1.0,11.0,63,0.00,OVC,FEW,0.00,WeatherDisplay:10.37,2013-04-27 20:47:00,
2013-04-27 14:02:00,58.8,45.8,30.29,WSW,249,2.0,9.0,62,0.00,OVC,FEW,0.00,WeatherDisplay:10.37,2013-04-27 21:02:00,
2013-04-27 14:17:00,57.7,45.2,30.29,West,264,3.0,9.0,63,0.00,OVC,FEW,0.00,WeatherDisplay:10.37,2013-04-27 21:17:00,
2013-04-27 14:32:00,57.0,45.4,30.28,West,275,2.0,8.0,65,0.00,OVC,FEW,0.00,WeatherDisplay:10.37,2013-04-27 21:32:00,
2013-04-27 14:47:00,56.5,45.3,30.29,West,276,3.0,6.0,66,0.00,OVC,FEW,0.00,WeatherDisplay:10.37,2013-04-27 21:47:00,
2013-04-27 15:02:00,56.3,45.5,30.28,West,274,2.0,6.0,67,0.00,-RA,FEW,0.00,WeatherDisplay:10.37,2013-04-27 22:02:00,
2013-04-27 15:17:00,56.1,46.1,30.27,WSW,256,1.0,4.0,69,0.00,-RA,FEW,0.00,WeatherDisplay:10.37,2013-04-27 22:17:00,
2013-04-27 15:32:00,56.8,46.8,30.27,West,274,3.0,9.0,69,0.00,-RA,FEW,0.00,WeatherDisplay:10.37,2013-04-27 22:32:00,
2013-04-27 15:47:00,56.4,46.7,30.27,SW,232,2.0,9.0,70,0.00,-RA,FEW,0.00,WeatherDisplay:10.37,2013-04-27 22:47:00,
2013-04-27 16:02:00,57.0,47.3,30.27,West,268,2.0,9.0,70,0.00,OVC,FEW,0.00,WeatherDisplay:10.37,2013-04-27 23:02:00,
2013-04-27 16:17:00,56.8,47.2,30.27,WSW,239,0.0,8.0,70,0.00,OVC,FEW,0.00,WeatherDisplay:10.37,2013-04-27 23:17:00,
2013-04-27 16:32:00,56.5,46.8,30.27,West,278,1.0,5.0,70,0.00,OVC,FEW,0.00,WeatherDisplay:10.37,2013-04-27 23:32:00,
2013-04-27 16:47:00,56.8,47.2,30.27,WSW,246,1.0,4.0,70,0.00,OVC,FEW,0.00,WeatherDisplay:10.37,2013-04-27 23:47:00,
2013-04-27 17:02:00,57.0,47.3,30.27,SW,230,1.0,5.0,70,0.00,-RA,FEW,0.00,WeatherDisplay:10.37,2013-04-28 00:02:00,
2013-04-27 17:17:00,56.7,47.1,30.27,SW,222,1.0,9.0,70,0.00,-RA,FEW,0.00,WeatherDisplay:10.37,2013-04-28 00:17:00,
2013-04-27 17:32:00,56.7,47.0,30.27,SSW,199,1.0,4.0,70,0.00,-RA,FEW,0.00,WeatherDisplay:10.37,2013-04-28 00:32:00,
2013-04-27 17:47:00,55.7,46.5,30.27,WSW,243,0.0,7.0,71,0.00,-RA,FEW,0.00,WeatherDisplay:10.37,2013-04-28 00:47:00,
2013-04-27 18:02:00,55.0,46.2,30.26,WSW,249,0.0,3.0,72,0.00,-RA,FEW,0.00,WeatherDisplay:10.37,2013-04-28 01:02:00,
2013-04-27 18:17:00,55.2,46.7,30.26,SW,232,0.0,3.0,73,0.02,-RA,FEW,0.02,WeatherDisplay:10.37,2013-04-28 01:17:00,
2013-04-27 18:32:00,55.0,46.5,30.25,SSW,201,0.0,4.0,73,0.00,-RA,FEW,0.02,WeatherDisplay:10.37,2013-04-28 01:32:00,
2013-04-27 18:47:00,54.5,46.0,30.25,SSW,192,0.0,6.0,73,0.00,-RA,FEW,0.02,WeatherDisplay:10.37,2013-04-28 01:47:00,
2013-04-27 19:02:00,54.1,46.0,30.26,West,270,1.0,5.0,74,0.00,OVC,FEW,0.02,WeatherDisplay:10.37,2013-04-28 02:02:00,
2013-04-27 19:17:00,53.4,45.3,30.27,WSW,255,2.0,6.0,74,0.00,OVC,FEW,0.02,WeatherDisplay:10.37,2013-04-28 02:17:00,
2013-04-27 19:32:00,53.2,45.5,30.26,SW,226,0.0,6.0,75,0.00,OVC,FEW,0.02,WeatherDisplay:10.37,2013-04-28 02:32:00,
2013-04-27 19:47:00,52.9,45.2,30.25,SW,227,0.0,5.0,75,0.00,OVC,FEW,0.02,WeatherDisplay:10.37,2013-04-28 02:47:00,
2013-04-27 20:02:00,52.5,44.8,30.25,SW,219,0.0,5.0,75,0.00,-RA,FEW,0.02,WeatherDisplay:10.37,2013-04-28 03:02:00,
2013-04-27 20:17:00,52.3,45.0,30.25,SW,222,0.0,6.0,76,0.00,-RA,FEW,0.02,WeatherDisplay:10.37,2013-04-28 03:17:00,
2013-04-27 20:32:00,52.0,44.6,30.25,SSW,210,1.0,4.0,76,0.00,-RA,FEW,0.02,WeatherDisplay:10.37,2013-04-28 03:32:00,
2013-04-27 20:47:00,51.8,44.8,30.25,SSW,204,1.0,6.0,77,0.00,-RA,FEW,0.02,WeatherDisplay:10.37,2013-04-28 03:47:00,
2013-04-27 21:02:00,51.6,45.0,30.26,WSW,256,0.0,5.0,78,0.00,OVC,FEW,0.02,WeatherDisplay:10.37,2013-04-28 04:02:00,
2013-04-27 21:17:00,51.4,44.8,30.26,SW,218,0.0,4.0,78,0.00,OVC,FEW,0.02,WeatherDisplay:10.37,2013-04-28 04:17:00,
2013-04-27 21:32:00,51.3,45.0,30.26,WSW,251,1.0,6.0,79,0.00,OVC,FEW,0.02,WeatherDisplay:10.37,2013-04-28 04:32:00,
2013-04-27 21:47:00,51.2,44.9,30.27,SW,234,0.0,4.0,79,0.00,OVC,FEW,0.02,WeatherDisplay:10.37,2013-04-28 04:47:00,
2013-04-27 22:02:00,51.1,44.8,30.27,SW,220,0.0,3.0,79,0.00,OVC,FEW,0.02,WeatherDisplay:10.37,2013-04-28 05:02:00,
2013-04-27 22:17:00,51.1,45.1,30.27,WSW,248,0.0,4.0,80,0.00,OVC,FEW,0.02,WeatherDisplay:10.37,2013-04-28 05:17:00,
2013-04-27 22:32:00,51.1,45.1,30.27,SW,235,0.0,3.0,80,0.00,OVC,FEW,0.02,WeatherDisplay:10.37,2013-04-28 05:32:00,
2013-04-27 22:47:00,51.1,45.1,30.27,WSW,239,1.0,3.0,80,0.00,OVC,FEW,0.02,WeatherDisplay:10.37,2013-04-28 05:47:00,
2013-04-27 23:02:00,51.1,45.5,30.27,WSW,254,1.0,3.0,81,0.00,-RA,FEW,0.02,WeatherDisplay:10.37,2013-04-28 06:02:00,
2013-04-27 23:17:00,51.1,45.5,30.27,SSW,201,0.0,3.0,81,0.00,-RA,FEW,0.02,WeatherDisplay:10.37,2013-04-28 06:17:00,
2013-04-27 23:32:00,50.9,45.3,30.27,South,190,1.0,2.0,81,0.00,-RA,FEW,0.02,WeatherDisplay:10.37,2013-04-28 06:32:00,
2013-04-27 23:47:00,50.9,45.3,30.27,WSW,241,0.0,2.0,81,0.00,-RA,FEW,0.02,WeatherDisplay:10.37,2013-04-28 06:47:00,